createdAt,value
2018-12-12T00:00:57.345Z,3.76
2018-12-12T00:01:57.562Z,3.61
2018-12-12T00:02:57.295Z,3.65
2018-12-12T00:03:57.614Z,3.67
2018-12-12T00:04:57.505Z,3.57
2018-12-12T00:05:56.979Z,3.65
2018-12-12T00:06:57.202Z,3.68
2018-12-12T00:07:57.431Z,3.58
2018-12-12T00:08:57.413Z,3.68
2018-12-12T00:09:56.906Z,3.61
2018-12-12T00:10:57.142Z,3.62
2018-12-12T00:11:56.846Z,3.6
2018-12-12T00:12:57.070Z,3.64
2018-12-12T00:13:57.059Z,3.65
2018-12-12T00:14:57.283Z,3.64
2018-12-12T00:15:57.029Z,3.68
2018-12-12T00:16:57.245Z,3.6
2018-12-12T00:17:56.972Z,3.72
2018-12-12T00:18:56.943Z,3.75
2018-12-12T00:19:57.260Z,3.7
2018-12-12T00:20:56.908Z,3.65
2018-12-12T00:21:56.877Z,3.72
2018-12-12T00:22:57.174Z,3.65
2018-12-12T00:23:57.103Z,3.76
2018-12-12T00:24:56.823Z,3.68
2018-12-12T00:25:56.794Z,3.7
2018-12-12T00:26:57.062Z,3.76
2018-12-12T00:27:57.053Z,3.76
2018-12-12T00:28:56.823Z,3.71
2018-12-12T00:29:57.061Z,3.67
2018-12-12T00:30:56.894Z,3.75
2018-12-12T00:31:57.229Z,3.71
2018-12-12T00:32:57.029Z,3.68
2018-12-12T00:33:56.932Z,3.76
2018-12-12T00:34:56.608Z,3.75
2018-12-12T00:35:56.583Z,3.76
2018-12-12T00:36:56.584Z,3.76
2018-12-12T00:37:56.536Z,3.75
2018-12-12T00:38:56.511Z,3.76
2018-12-12T00:39:56.489Z,3.79
2018-12-12T00:40:56.224Z,3.76
2018-12-12T00:41:56.700Z,3.78
2018-12-12T00:42:56.674Z,3.75
2018-12-12T00:43:56.658Z,3.8
2018-12-12T00:44:56.383Z,3.89
2018-12-12T00:45:56.635Z,3.8
2018-12-12T00:46:56.089Z,3.86
2018-12-12T00:47:56.312Z,3.85
2018-12-12T00:48:56.290Z,3.85
2018-12-12T00:49:56.420Z,3.8
2018-12-12T00:50:56.616Z,3.85
2018-12-12T00:51:56.574Z,3.79
2018-12-12T00:52:56.370Z,3.92
2018-12-12T00:53:56.827Z,3.86
2018-12-12T00:54:56.833Z,3.88
2018-12-12T00:55:56.618Z,3.82
2018-12-12T00:56:56.693Z,3.83
2018-12-12T00:57:56.132Z,3.86
2018-12-12T00:58:56.075Z,3.83
2018-12-12T00:59:56.061Z,3.92
2018-12-12T01:00:56.032Z,3.88
2018-12-12T01:01:56.028Z,3.88
2018-12-12T01:02:55.733Z,3.9
2018-12-12T01:03:56.217Z,3.97
2018-12-12T01:04:55.946Z,3.97
2018-12-12T01:05:55.665Z,3.97
2018-12-12T01:06:55.905Z,3.9
2018-12-12T01:07:55.881Z,3.92
2018-12-12T01:08:55.870Z,4
2018-12-12T01:09:56.088Z,4.01
2018-12-12T01:10:55.822Z,3.96
2018-12-12T01:11:55.870Z,4.01
2018-12-12T01:12:55.932Z,3.94
2018-12-12T01:13:55.852Z,4.01
2018-12-12T01:14:55.791Z,3.92
2018-12-12T01:15:55.451Z,3.92
2018-12-12T01:16:56.233Z,4.03
2018-12-12T01:17:55.414Z,3.98
2018-12-12T01:18:55.643Z,4
2018-12-12T01:19:55.622Z,4.03
2018-12-12T01:20:55.597Z,3.97
2018-12-12T01:21:55.841Z,4.01
2018-12-12T01:22:55.806Z,4.06
2018-12-12T01:23:55.794Z,4.07
2018-12-12T01:24:55.772Z,4.06
2018-12-12T01:25:55.485Z,4.06
2018-12-12T01:26:55.471Z,3.92
2018-12-12T01:27:55.769Z,4.08
2018-12-12T01:28:55.680Z,4.14
2018-12-12T01:29:55.653Z,4.04
2018-12-12T01:30:55.381Z,4.08
2018-12-12T01:31:55.617Z,4.12
2018-12-12T01:32:55.614Z,4.04
2018-12-12T01:33:55.319Z,4.03
2018-12-12T01:34:55.553Z,4.03
2018-12-12T01:35:55.523Z,4.03
2018-12-12T01:36:55.721Z,4.07
2018-12-12T01:37:55.488Z,4.06
2018-12-12T01:38:55.212Z,4.06
2018-12-12T01:39:55.198Z,4.1
2018-12-12T01:40:55.176Z,4.04
2018-12-12T01:41:55.395Z,4.08
2018-12-12T01:42:55.128Z,4.06
2018-12-12T01:43:55.355Z,3.9
2018-12-12T01:44:55.593Z,4.07
2018-12-12T01:45:55.318Z,4.08
2018-12-12T01:46:55.287Z,3.98
2018-12-12T01:47:55.280Z,4.08
2018-12-12T01:48:55.254Z,4.01
2018-12-12T01:49:55.078Z,4.03
2018-12-12T01:50:54.715Z,4.07
2018-12-12T01:51:55.179Z,4.03
2018-12-12T01:52:54.903Z,4.06
2018-12-12T01:53:55.177Z,4.06
2018-12-12T01:54:55.126Z,4.07
2018-12-12T01:55:54.854Z,4.06
2018-12-12T01:56:55.131Z,4.07
2018-12-12T01:57:55.052Z,4.07
2018-12-12T01:58:55.034Z,4.14
2018-12-12T01:59:54.506Z,4.1
2018-12-12T02:00:54.736Z,4.08
2018-12-12T02:01:54.735Z,4.06
2018-12-12T02:02:54.698Z,4.03
2018-12-12T02:03:54.935Z,4.06
2018-12-12T02:04:54.394Z,4.1
2018-12-12T02:05:54.389Z,4.12
2018-12-12T02:06:54.609Z,4.12
2018-12-12T02:07:54.335Z,4.06
2018-12-12T02:08:54.628Z,4.1
2018-12-12T02:09:54.295Z,4.06
2018-12-12T02:10:54.517Z,4.03
2018-12-12T02:11:54.528Z,4.14
2018-12-12T02:12:54.745Z,4.08
2018-12-12T02:13:54.715Z,3.94
2018-12-12T02:14:54.730Z,4.06
2018-12-12T02:15:54.678Z,4.04
2018-12-12T02:16:54.719Z,4.04
2018-12-12T02:17:54.373Z,4.04
2018-12-12T02:18:54.355Z,4.08
2018-12-12T02:19:54.080Z,4.07
2018-12-12T02:20:54.313Z,4.04
2018-12-12T02:21:54.289Z,4.06
2018-12-12T02:22:54.262Z,4
2018-12-12T02:23:54.249Z,4
2018-12-12T02:24:54.502Z,4
2018-12-12T02:25:54.459Z,4
2018-12-12T02:26:54.439Z,4
2018-12-12T02:27:54.418Z,3.97
2018-12-12T02:28:54.399Z,4.03
2018-12-12T02:29:53.860Z,3.96
2018-12-12T02:30:54.352Z,4
2018-12-12T02:31:53.849Z,4
2018-12-12T02:32:54.310Z,3.94
2018-12-12T02:33:54.044Z,3.94
2018-12-12T02:34:54.001Z,4.01
2018-12-12T02:35:53.987Z,4.03
2018-12-12T02:36:53.965Z,3.98
2018-12-12T02:37:54.199Z,3.92
2018-12-12T02:38:54.224Z,4.01
2018-12-12T02:39:54.154Z,3.98
2018-12-12T02:40:54.142Z,4.06
2018-12-12T02:41:53.862Z,4
2018-12-12T02:42:53.835Z,3.98
2018-12-12T02:43:54.082Z,4
2018-12-12T02:44:53.794Z,3.94
2018-12-12T02:45:53.769Z,3.97
2018-12-12T02:46:53.744Z,3.97
2018-12-12T02:47:53.982Z,3.9
2018-12-12T02:48:53.968Z,3.94
2018-12-12T02:49:53.954Z,3.89
2018-12-12T02:50:53.710Z,3.89
2018-12-12T02:51:53.640Z,3.89
2018-12-12T02:52:53.632Z,3.89
2018-12-12T02:53:53.860Z,3.85
2018-12-12T02:54:53.573Z,3.94
2018-12-12T02:55:53.558Z,3.89
2018-12-12T02:56:53.534Z,3.96
2018-12-12T02:57:53.766Z,3.96
2018-12-12T02:58:53.745Z,3.9
2018-12-12T02:59:53.468Z,3.94
2018-12-12T03:00:53.208Z,3.94
2018-12-12T03:01:53.428Z,3.86
2018-12-12T03:02:53.408Z,3.86
2018-12-12T03:03:53.386Z,3.9
2018-12-12T03:04:53.624Z,3.85
2018-12-12T03:05:53.599Z,3.88
2018-12-12T03:06:53.571Z,3.92
2018-12-12T03:07:53.560Z,3.88
2018-12-12T03:08:53.279Z,3.86
2018-12-12T03:09:53.325Z,3.92
2018-12-12T03:10:53.233Z,3.89
2018-12-12T03:11:53.208Z,3.9
2018-12-12T03:12:53.447Z,3.88
2018-12-12T03:13:53.179Z,3.89
2018-12-12T03:14:53.149Z,3.89
2018-12-12T03:15:53.138Z,3.9
2018-12-12T03:16:52.857Z,3.85
2018-12-12T03:17:53.344Z,3.9
2018-12-12T03:18:53.319Z,3.88
2018-12-12T03:19:53.037Z,3.89
2018-12-12T03:20:52.760Z,3.88
2018-12-12T03:21:53.249Z,3.92
2018-12-12T03:22:52.715Z,3.9
2018-12-12T03:23:52.950Z,3.96
2018-12-12T03:24:53.178Z,3.89
2018-12-12T03:25:53.167Z,3.85
2018-12-12T03:26:52.887Z,3.88
2018-12-12T03:27:52.619Z,3.86
2018-12-12T03:28:52.843Z,3.96
2018-12-12T03:29:52.831Z,3.88
2018-12-12T03:30:53.070Z,3.96
2018-12-12T03:31:53.058Z,3.92
2018-12-12T03:32:52.799Z,3.92
2018-12-12T03:33:52.734Z,3.96
2018-12-12T03:34:52.966Z,3.9
2018-12-12T03:35:52.689Z,3.88
2018-12-12T03:36:52.875Z,3.9
2018-12-12T03:37:52.648Z,3.9
2018-12-12T03:38:52.636Z,3.9
2018-12-12T03:39:52.599Z,3.94
2018-12-12T03:40:52.850Z,3.85
2018-12-12T03:41:52.555Z,3.86
2018-12-12T03:42:52.545Z,3.83
2018-12-12T03:43:52.522Z,3.85
2018-12-12T03:44:52.244Z,3.85
2018-12-12T03:45:52.743Z,3.92
2018-12-12T03:46:52.465Z,3.86
2018-12-12T03:47:52.438Z,3.86
2018-12-12T03:48:52.413Z,3.83
2018-12-12T03:49:52.648Z,3.9
2018-12-12T03:50:52.365Z,3.82
2018-12-12T03:51:52.089Z,3.86
2018-12-12T03:52:52.074Z,3.88
2018-12-12T03:53:52.583Z,3.8
2018-12-12T03:54:52.539Z,3.82
2018-12-12T03:55:52.511Z,3.79
2018-12-12T03:56:51.986Z,3.82
2018-12-12T03:57:52.481Z,3.78
2018-12-12T03:58:52.210Z,3.75
2018-12-12T03:59:52.437Z,3.72
2018-12-12T04:00:52.421Z,3.76
2018-12-12T04:01:52.391Z,3.75
2018-12-12T04:02:52.119Z,3.76
2018-12-12T04:03:52.349Z,3.75
2018-12-12T04:04:51.831Z,3.79
2018-12-12T04:05:52.044Z,3.72
2018-12-12T04:06:52.375Z,3.64
2018-12-12T04:07:52.009Z,3.72
2018-12-12T04:08:52.235Z,3.65
2018-12-12T04:09:51.955Z,3.67
2018-12-12T04:10:51.934Z,3.58
2018-12-12T04:11:51.669Z,3.58
2018-12-12T04:12:51.635Z,3.53
2018-12-12T04:13:52.117Z,3.58
2018-12-12T04:14:51.604Z,3.57
2018-12-12T04:15:52.080Z,3.54
2018-12-12T04:16:52.057Z,3.58
2018-12-12T04:17:52.053Z,3.53
2018-12-12T04:18:51.767Z,3.61
2018-12-12T04:19:51.744Z,3.61
2018-12-12T04:20:51.463Z,3.58
2018-12-12T04:21:51.440Z,3.57
2018-12-12T04:22:51.928Z,3.62
2018-12-12T04:23:51.655Z,3.6
2018-12-12T04:24:51.624Z,3.54
2018-12-12T04:25:51.863Z,3.6
2018-12-12T04:26:51.337Z,3.61
2018-12-12T04:27:51.310Z,3.49
2018-12-12T04:28:51.548Z,3.53
2018-12-12T04:29:51.520Z,3.6
2018-12-12T04:30:51.495Z,3.58
2018-12-12T04:31:51.728Z,3.61
2018-12-12T04:32:51.473Z,3.58
2018-12-12T04:33:51.530Z,3.6
2018-12-12T04:34:51.673Z,3.52
2018-12-12T04:35:51.389Z,3.49
2018-12-12T04:36:51.629Z,3.61
2018-12-12T04:37:51.358Z,3.54
2018-12-12T04:38:51.572Z,3.57
2018-12-12T04:39:51.294Z,3.53
2018-12-12T04:40:51.275Z,3.53
2018-12-12T04:41:51.254Z,3.57
2018-12-12T04:42:51.252Z,3.58
2018-12-12T04:43:51.555Z,3.58
2018-12-12T04:44:51.447Z,3.57
2018-12-12T04:45:51.176Z,3.57
2018-12-12T04:46:51.140Z,3.54
2018-12-12T04:47:53.388Z,3.65
2018-12-12T04:48:51.356Z,3.57
2018-12-12T04:49:51.341Z,3.54
2018-12-12T04:50:51.317Z,3.6
2018-12-12T04:51:51.039Z,3.53
2018-12-12T04:52:51.011Z,3.61
2018-12-12T04:53:50.998Z,3.57
2018-12-12T04:54:51.218Z,3.6
2018-12-12T04:55:50.960Z,3.57
2018-12-12T04:56:50.922Z,3.57
2018-12-12T04:57:51.170Z,3.6
2018-12-12T04:58:51.160Z,3.61
2018-12-12T04:59:51.123Z,3.53
2018-12-12T05:00:50.623Z,3.61
2018-12-12T05:01:50.820Z,3.58
2018-12-12T05:02:51.052Z,3.67
2018-12-12T05:03:51.027Z,3.62
2018-12-12T05:04:51.001Z,3.62
2018-12-12T05:05:50.734Z,3.58
2018-12-12T05:06:50.702Z,3.6
2018-12-12T05:07:50.468Z,3.64
2018-12-12T05:08:50.918Z,3.58
2018-12-12T05:09:50.646Z,3.6
2018-12-12T05:10:50.639Z,3.65
2018-12-12T05:11:50.595Z,3.64
2018-12-12T05:12:50.650Z,3.68
2018-12-12T05:13:50.811Z,3.68
2018-12-12T05:14:50.788Z,3.65
2018-12-12T05:15:50.768Z,3.68
2018-12-12T05:16:50.741Z,3.64
2018-12-12T05:17:50.464Z,3.6
2018-12-12T05:18:50.699Z,3.68
2018-12-12T05:19:50.681Z,3.6
2018-12-12T05:20:50.404Z,3.62
2018-12-12T05:21:50.123Z,3.65
2018-12-12T05:22:50.646Z,3.64
2018-12-12T05:23:50.592Z,3.67
2018-12-12T05:24:50.315Z,3.64
2018-12-12T05:25:50.298Z,3.65
2018-12-12T05:26:50.286Z,3.71
2018-12-12T05:27:50.499Z,3.72
2018-12-12T05:28:50.229Z,3.75
2018-12-12T05:29:50.456Z,3.72
2018-12-12T05:30:50.179Z,3.75
2018-12-12T05:31:50.446Z,3.8
2018-12-12T05:32:50.151Z,3.79
2018-12-12T05:33:49.884Z,3.7
2018-12-12T05:34:50.156Z,3.72
2018-12-12T05:35:50.074Z,3.71
2018-12-12T05:36:50.518Z,3.76
2018-12-12T05:37:56.246Z,3.76
2018-12-12T05:38:50.277Z,3.76
2018-12-12T05:39:50.194Z,3.75
2018-12-12T05:40:50.219Z,3.71
2018-12-12T05:41:49.945Z,3.79
2018-12-12T05:42:49.704Z,3.7
2018-12-12T05:43:49.899Z,3.8
2018-12-12T05:44:50.147Z,3.7
2018-12-12T05:45:49.855Z,3.82
2018-12-12T05:46:50.095Z,3.8
2018-12-12T05:47:50.069Z,3.76
2018-12-12T05:48:49.789Z,3.75
2018-12-12T05:49:50.030Z,3.76
2018-12-12T05:50:49.750Z,3.78
2018-12-12T05:51:49.721Z,3.78
2018-12-12T05:52:49.955Z,3.8
2018-12-12T05:53:49.935Z,3.82
2018-12-12T05:54:49.661Z,3.82
2018-12-12T05:55:49.641Z,3.86
2018-12-12T05:56:54.807Z,3.75
2018-12-12T05:57:49.341Z,3.83
2018-12-12T05:58:49.826Z,3.82
2018-12-12T05:59:49.604Z,3.79
2018-12-12T06:00:49.534Z,3.82
2018-12-12T06:01:49.249Z,3.78
2018-12-12T06:02:49.235Z,3.83
2018-12-12T06:03:49.213Z,3.82
2018-12-12T06:04:49.190Z,3.89
2018-12-12T06:05:49.677Z,3.88
2018-12-12T06:06:49.657Z,3.85
2018-12-12T06:07:49.125Z,3.92
2018-12-12T06:08:49.361Z,3.88
2018-12-12T06:09:49.588Z,3.86
2018-12-12T06:10:49.566Z,3.86
2018-12-12T06:11:49.547Z,3.89
2018-12-12T06:12:49.526Z,3.92
2018-12-12T06:13:49.248Z,3.89
2018-12-12T06:14:49.485Z,3.92
2018-12-12T06:15:49.203Z,3.88
2018-12-12T06:16:49.439Z,3.9
2018-12-12T06:17:49.161Z,3.94
2018-12-12T06:18:49.404Z,4
2018-12-12T06:19:49.127Z,4
2018-12-12T06:20:49.349Z,3.97
2018-12-12T06:21:49.330Z,3.98
2018-12-12T06:22:49.072Z,3.94
2018-12-12T06:23:49.032Z,3.88
2018-12-12T06:24:49.270Z,3.9
2018-12-12T06:25:49.242Z,3.94
2018-12-12T06:26:49.218Z,3.92
2018-12-12T06:27:48.947Z,3.9
2018-12-12T06:28:48.921Z,3.88
2018-12-12T06:29:48.641Z,3.96
2018-12-12T06:30:48.882Z,3.89
2018-12-12T06:31:49.111Z,3.94
2018-12-12T06:32:49.106Z,3.94
2018-12-12T06:33:48.821Z,3.88
2018-12-12T06:34:48.802Z,3.97
2018-12-12T06:35:48.772Z,3.92
2018-12-12T06:36:49.007Z,3.89
2018-12-12T06:37:48.982Z,3.96
2018-12-12T06:38:48.701Z,3.9
2018-12-12T06:39:48.940Z,3.89
2018-12-12T06:40:48.921Z,3.92
2018-12-12T06:41:48.651Z,3.9
2018-12-12T06:42:48.615Z,3.88
2018-12-12T06:43:48.894Z,3.85
2018-12-12T06:44:48.575Z,3.88
2018-12-12T06:45:48.303Z,3.9
2018-12-12T06:46:48.535Z,3.86
2018-12-12T06:47:48.767Z,3.89
2018-12-12T06:48:48.745Z,3.92
2018-12-12T06:49:48.727Z,3.96
2018-12-12T06:50:48.702Z,3.9
2018-12-12T06:51:48.679Z,3.9
2018-12-12T06:52:48.398Z,3.89
2018-12-12T06:53:48.636Z,3.94
2018-12-12T06:54:48.361Z,3.89
2018-12-12T06:55:48.336Z,3.88
2018-12-12T06:56:48.062Z,3.89
2018-12-12T06:57:48.550Z,3.94
2018-12-12T06:58:48.528Z,3.85
2018-12-12T06:59:48.525Z,3.92
2018-12-12T07:00:47.979Z,3.92
2018-12-12T07:01:47.954Z,3.89
2018-12-12T07:02:48.200Z,3.9
2018-12-12T07:03:47.909Z,3.88
2018-12-12T07:04:48.140Z,3.85
2018-12-12T07:05:47.866Z,3.85
2018-12-12T07:06:48.098Z,3.94
2018-12-12T07:07:48.346Z,3.85
2018-12-12T07:08:48.053Z,3.88
2018-12-12T07:09:48.285Z,3.89
2018-12-12T07:10:48.283Z,3.86
2018-12-12T07:11:48.245Z,3.88
2018-12-12T07:12:48.236Z,3.9
2018-12-12T07:13:47.944Z,3.86
2018-12-12T07:14:47.683Z,3.86
2018-12-12T07:15:47.900Z,3.9
2018-12-12T07:16:48.139Z,3.9
2018-12-12T07:17:48.120Z,3.94
2018-12-12T07:18:47.840Z,3.97
2018-12-12T07:19:47.819Z,3.98
2018-12-12T07:20:48.054Z,3.94
2018-12-12T07:21:47.773Z,3.98
2018-12-12T07:22:48.956Z,3.96
2018-12-12T07:23:47.991Z,3.96
2018-12-12T07:24:47.712Z,4
2018-12-12T07:25:47.938Z,3.98
2018-12-12T07:26:47.911Z,4.01
2018-12-12T07:27:47.655Z,3.98
2018-12-12T07:28:47.372Z,4.03
2018-12-12T07:29:47.598Z,3.92
2018-12-12T07:30:47.830Z,4.06
2018-12-12T07:31:47.312Z,4
2018-12-12T07:32:47.537Z,4.01
2018-12-12T07:33:47.513Z,4
2018-12-12T07:34:47.743Z,4.01
2018-12-12T07:35:47.724Z,4.01
2018-12-12T07:36:47.850Z,3.98
2018-12-12T07:37:47.703Z,3.98
2018-12-12T07:38:47.666Z,4.03
2018-12-12T07:39:47.638Z,4.06
2018-12-12T07:40:47.626Z,3.98
2018-12-12T07:41:47.596Z,4.03
2018-12-12T07:42:47.328Z,4.01
2018-12-12T07:43:47.551Z,4.07
2018-12-12T07:44:47.576Z,4.01
2018-12-12T07:45:47.258Z,4.01
2018-12-12T07:46:47.489Z,3.98
2018-12-12T07:47:47.208Z,4.08
2018-12-12T07:48:47.184Z,4.03
2018-12-12T07:49:47.415Z,4.03
2018-12-12T07:50:48.877Z,4.14
2018-12-12T07:51:47.129Z,4.04
2018-12-12T07:52:47.119Z,3.89
2018-12-12T07:53:47.075Z,4
2018-12-12T07:54:47.073Z,4.07
2018-12-12T07:55:47.294Z,4.03
2018-12-12T07:56:47.016Z,4.04
2018-12-12T07:57:47.249Z,4.03
2018-12-12T07:58:47.225Z,4.14
2018-12-12T07:59:47.205Z,4.06
2018-12-12T08:00:47.178Z,4.16
2018-12-12T08:01:47.186Z,4.08
2018-12-12T08:02:46.629Z,4.03
2018-12-12T08:03:47.123Z,4.12
2018-12-12T08:04:46.849Z,4.1
2018-12-12T08:05:46.837Z,4.08
2018-12-12T08:06:47.062Z,4.07
2018-12-12T08:07:46.775Z,4.08
2018-12-12T08:08:46.750Z,4.1
2018-12-12T08:09:46.478Z,4.08
2018-12-12T08:10:46.751Z,4.18
2018-12-12T08:11:46.954Z,4.07
2018-12-12T08:12:46.919Z,4.15
2018-12-12T08:13:46.909Z,4.15
2018-12-12T08:14:46.626Z,4.12
2018-12-12T08:15:46.603Z,4.07
2018-12-12T08:16:46.331Z,4.12
2018-12-12T08:17:46.812Z,4.14
2018-12-12T08:18:46.800Z,4.18
2018-12-12T08:19:46.535Z,4.12
2018-12-12T08:20:46.494Z,4.18
2018-12-12T08:21:46.479Z,4.15
2018-12-12T08:22:46.708Z,4.19
2018-12-12T08:23:46.428Z,4.21
2018-12-12T08:24:46.415Z,4.24
2018-12-12T08:25:46.413Z,4.24
2018-12-12T08:26:46.634Z,4.24
2018-12-12T08:27:46.351Z,4.24
2018-12-12T08:28:46.319Z,4.22
2018-12-12T08:29:46.299Z,4.28
2018-12-12T08:30:46.280Z,4.25
2018-12-12T08:31:46.002Z,4.28
2018-12-12T08:32:45.982Z,4.32
2018-12-12T08:33:45.962Z,4.33
2018-12-12T08:34:46.217Z,4.37
2018-12-12T08:35:46.433Z,4.33
2018-12-12T08:36:46.404Z,4.36
2018-12-12T08:37:46.143Z,4.34
2018-12-12T08:38:45.858Z,4.34
2018-12-12T08:39:46.346Z,4.32
2018-12-12T08:40:46.066Z,4.28
2018-12-12T08:41:46.041Z,4.36
2018-12-12T08:42:46.439Z,4.37
2018-12-12T08:43:45.997Z,4.33
2018-12-12T08:44:45.984Z,4.39
2018-12-12T08:45:46.016Z,4.36
2018-12-12T08:46:46.186Z,4.34
2018-12-12T08:47:45.923Z,4.34
2018-12-12T08:48:46.151Z,4.37
2018-12-12T08:49:46.190Z,4.43
2018-12-12T08:50:45.853Z,4.39
2018-12-12T08:51:45.581Z,4.4
2018-12-12T08:52:45.812Z,4.34
2018-12-12T08:53:45.782Z,4.36
2018-12-12T08:54:46.022Z,4.4
2018-12-12T08:55:45.999Z,4.42
2018-12-12T08:56:45.982Z,4.42
2018-12-12T08:57:45.959Z,4.34
2018-12-12T08:58:45.936Z,4.46
2018-12-12T08:59:45.661Z,4.46
2018-12-12T09:00:45.641Z,4.46
2018-12-12T09:01:45.612Z,4.55
2018-12-12T09:02:45.591Z,4.57
2018-12-12T09:03:45.579Z,4.55
2018-12-12T09:04:45.811Z,4.64
2018-12-12T09:05:45.545Z,4.62
2018-12-12T09:06:45.252Z,4.61
2018-12-12T09:07:45.489Z,4.69
2018-12-12T09:08:45.484Z,4.7
2018-12-12T09:09:45.702Z,4.72
2018-12-12T09:10:45.171Z,4.76
2018-12-12T09:11:45.678Z,4.7
2018-12-12T09:12:45.728Z,4.83
2018-12-12T09:13:45.625Z,4.86
2018-12-12T09:14:45.620Z,4.76
2018-12-12T09:15:45.117Z,4.86
2018-12-12T09:16:45.554Z,4.86
2018-12-12T09:17:45.279Z,4.91
2018-12-12T09:18:45.524Z,4.89
2018-12-12T09:19:45.241Z,4.96
2018-12-12T09:20:45.501Z,4.92
2018-12-12T09:21:45.194Z,4.94
2018-12-12T09:22:45.177Z,4.95
2018-12-12T09:23:45.153Z,5.02
2018-12-12T09:24:45.387Z,4.94
2018-12-12T09:25:45.371Z,4.99
2018-12-12T09:26:44.844Z,5.07
2018-12-12T09:27:46.352Z,5.1
2018-12-12T09:28:45.303Z,5.09
2018-12-12T09:29:45.030Z,5.12
2018-12-12T09:30:45.280Z,5.09
2018-12-12T09:31:44.987Z,5.14
2018-12-12T09:32:44.708Z,5.16
2018-12-12T09:33:44.696Z,5.19
2018-12-12T09:34:45.178Z,5.23
2018-12-12T09:35:45.168Z,5.22
2018-12-12T09:36:44.881Z,5.2
2018-12-12T09:37:45.115Z,5.19
2018-12-12T09:38:44.846Z,5.17
2018-12-12T09:39:44.821Z,5.12
2018-12-12T09:40:45.053Z,5.17
2018-12-12T09:41:44.781Z,5.22
2018-12-12T09:42:45.018Z,5.23
2018-12-12T09:43:44.891Z,5.25
2018-12-12T09:44:44.971Z,5.27
2018-12-12T09:45:44.695Z,5.32
2018-12-12T09:46:44.942Z,5.31
2018-12-12T09:47:44.657Z,5.3
2018-12-12T09:48:44.932Z,5.35
2018-12-12T09:49:44.616Z,5.3
2018-12-12T09:50:44.596Z,5.3
2018-12-12T09:51:44.578Z,5.28
2018-12-12T09:52:44.299Z,5.45
2018-12-12T09:53:44.586Z,5.41
2018-12-12T09:54:44.517Z,5.37
2018-12-12T09:55:45.026Z,5.43
2018-12-12T09:56:44.825Z,5.4
2018-12-12T09:57:44.777Z,5.48
2018-12-12T09:58:44.444Z,5.49
2018-12-12T09:59:44.313Z,5.48
2018-12-12T10:00:44.699Z,5.46
2018-12-12T10:01:44.730Z,5.48
2018-12-12T10:02:44.350Z,5.45
2018-12-12T10:03:44.371Z,5.45
2018-12-12T10:04:44.315Z,5.38
2018-12-12T10:05:44.348Z,5.49
2018-12-12T10:06:44.336Z,5.46
2018-12-12T10:07:44.248Z,5.45
2018-12-12T10:08:44.491Z,5.49
2018-12-12T10:09:44.201Z,5.48
2018-12-12T10:10:43.941Z,5.48
2018-12-12T10:11:44.429Z,5.5
2018-12-12T10:12:44.150Z,5.52
2018-12-12T10:13:44.125Z,5.5
2018-12-12T10:14:44.099Z,5.5
2018-12-12T10:15:44.084Z,5.48
2018-12-12T10:16:44.063Z,5.55
2018-12-12T10:17:44.295Z,5.56
2018-12-12T10:18:44.320Z,5.59
2018-12-12T10:19:44.297Z,5.59
2018-12-12T10:20:44.087Z,5.55
2018-12-12T10:21:44.305Z,5.57
2018-12-12T10:22:44.466Z,5.63
2018-12-12T10:23:44.282Z,5.73
2018-12-12T10:24:44.356Z,5.7
2018-12-12T10:25:44.004Z,5.63
2018-12-12T10:26:44.129Z,5.59
2018-12-12T10:27:44.141Z,5.66
2018-12-12T10:28:44.104Z,5.7
2018-12-12T10:29:44.058Z,5.71
2018-12-12T10:30:44.027Z,5.59
2018-12-12T10:31:43.770Z,5.73
2018-12-12T10:32:43.744Z,5.7
2018-12-12T10:33:43.986Z,5.74
2018-12-12T10:34:43.453Z,5.75
2018-12-12T10:35:43.424Z,5.74
2018-12-12T10:36:43.907Z,5.78
2018-12-12T10:37:43.639Z,5.81
2018-12-12T10:38:43.616Z,5.86
2018-12-12T10:39:43.856Z,5.85
2018-12-12T10:40:43.829Z,5.81
2018-12-12T10:41:43.565Z,5.88
2018-12-12T10:42:43.800Z,5.77
2018-12-12T10:43:43.566Z,5.83
2018-12-12T10:44:43.612Z,5.89
2018-12-12T10:45:43.683Z,5.88
2018-12-12T10:46:43.631Z,5.92
2018-12-12T10:47:43.184Z,5.83
2018-12-12T10:48:43.873Z,5.95
2018-12-12T10:49:43.138Z,6
2018-12-12T10:50:43.382Z,5.95
2018-12-12T10:51:43.350Z,6.01
2018-12-12T10:52:43.335Z,5.93
2018-12-12T10:53:43.062Z,5.96
2018-12-12T10:54:43.296Z,5.95
2018-12-12T10:55:43.280Z,5.89
2018-12-12T10:56:43.510Z,5.96
2018-12-12T10:57:43.496Z,5.88
2018-12-12T10:58:43.479Z,5.89
2018-12-12T10:59:43.494Z,5.88
2018-12-12T11:00:43.430Z,5.98
2018-12-12T11:01:43.414Z,5.91
2018-12-12T11:02:43.134Z,5.96
2018-12-12T11:03:48.735Z,5.96
2018-12-12T11:04:43.460Z,5.95
2018-12-12T11:05:43.325Z,6
2018-12-12T11:06:43.305Z,5.98
2018-12-12T11:07:43.293Z,6
2018-12-12T11:08:43.278Z,6.01
2018-12-12T11:09:43.247Z,6.01
2018-12-12T11:10:42.976Z,6.06
2018-12-12T11:11:43.217Z,6.03
2018-12-12T11:12:42.940Z,6.03
2018-12-12T11:13:42.921Z,6
2018-12-12T11:14:42.899Z,5.95
2018-12-12T11:15:43.137Z,5.93
2018-12-12T11:16:42.605Z,6
2018-12-12T11:17:42.834Z,6.01
2018-12-12T11:18:42.815Z,6
2018-12-12T11:19:43.060Z,6.04
2018-12-12T11:20:43.054Z,6.06
2018-12-12T11:21:42.755Z,6.07
2018-12-12T11:22:42.746Z,6.06
2018-12-12T11:23:42.467Z,6.09
2018-12-12T11:24:42.446Z,6.18
2018-12-12T11:25:42.931Z,6.1
2018-12-12T11:26:42.664Z,6.22
2018-12-12T11:27:42.894Z,6.22
2018-12-12T11:28:42.364Z,6.21
2018-12-12T11:29:42.911Z,6.28
2018-12-12T11:30:42.578Z,6.3
2018-12-12T11:31:42.555Z,6.3
2018-12-12T11:32:42.538Z,6.28
2018-12-12T11:33:42.540Z,6.28
2018-12-12T11:34:42.526Z,6.41
2018-12-12T11:35:42.735Z,6.41
2018-12-12T11:36:42.842Z,6.5
2018-12-12T11:37:42.445Z,6.48
2018-12-12T11:38:42.418Z,6.47
2018-12-12T11:39:42.401Z,6.46
2018-12-12T11:40:42.642Z,6.46
2018-12-12T11:41:42.621Z,6.47
2018-12-12T11:42:42.341Z,6.5
2018-12-12T11:43:42.319Z,6.54
2018-12-12T11:44:42.557Z,6.51
2018-12-12T11:45:42.545Z,6.63
2018-12-12T11:46:42.012Z,6.54
2018-12-12T11:47:42.250Z,6.51
2018-12-12T11:48:42.224Z,6.5
2018-12-12T11:49:42.480Z,6.47
2018-12-12T11:50:42.183Z,6.44
2018-12-12T11:51:42.453Z,6.48
2018-12-12T11:52:42.417Z,6.51
2018-12-12T11:53:42.380Z,6.53
2018-12-12T11:54:42.363Z,6.5
2018-12-12T11:55:42.087Z,6.48
2018-12-12T11:56:42.325Z,6.53
2018-12-12T11:57:42.052Z,6.54
2018-12-12T11:58:42.031Z,6.51
2018-12-12T11:59:42.024Z,6.58
2018-12-12T12:00:41.991Z,6.56
2018-12-12T12:01:41.970Z,6.48
2018-12-12T12:02:42.219Z,6.48
2018-12-12T12:03:41.937Z,6.46
2018-12-12T12:04:41.920Z,6.46
2018-12-12T12:05:41.898Z,6.44
2018-12-12T12:06:42.130Z,6.47
2018-12-12T12:07:41.850Z,6.48
2018-12-12T12:08:42.098Z,6.48
2018-12-12T12:09:42.074Z,6.54
2018-12-12T12:10:41.549Z,6.48
2018-12-12T12:11:42.030Z,6.46
2018-12-12T12:12:42.035Z,6.61
2018-12-12T12:13:41.494Z,6.58
2018-12-12T12:14:41.716Z,6.56
2018-12-12T12:15:41.714Z,6.51
2018-12-12T12:16:41.689Z,6.47
2018-12-12T12:17:41.913Z,6.5
2018-12-12T12:18:41.698Z,6.63
2018-12-12T12:19:41.885Z,6.62
2018-12-12T12:20:41.597Z,6.62
2018-12-12T12:21:41.836Z,6.62
2018-12-12T12:22:41.562Z,6.62
2018-12-12T12:23:41.539Z,6.65
2018-12-12T12:24:41.523Z,6.71
2018-12-12T12:25:41.759Z,6.56
2018-12-12T12:26:41.495Z,6.62
2018-12-12T12:27:41.723Z,6.61
2018-12-12T12:28:41.701Z,6.59
2018-12-12T12:29:42.023Z,6.51
2018-12-12T12:30:41.677Z,6.51
2018-12-12T12:31:41.435Z,6.63
2018-12-12T12:32:41.367Z,6.62
2018-12-12T12:33:41.347Z,6.59
2018-12-12T12:34:41.338Z,6.48
2018-12-12T12:35:41.572Z,6.47
2018-12-12T12:36:41.314Z,6.41
2018-12-12T12:37:41.529Z,6.43
2018-12-12T12:38:41.507Z,6.48
2018-12-12T12:39:41.230Z,6.33
2018-12-12T12:40:41.512Z,6.4
2018-12-12T12:41:41.198Z,6.3
2018-12-12T12:42:41.738Z,6.28
2018-12-12T12:43:41.411Z,6.29
2018-12-12T12:44:40.874Z,6.26
2018-12-12T12:45:41.122Z,6.16
2018-12-12T12:46:41.359Z,6.07
2018-12-12T12:47:41.075Z,6.11
2018-12-12T12:48:41.329Z,6.04
2018-12-12T12:49:41.289Z,6.09
2018-12-12T12:50:40.758Z,6.04
2018-12-12T12:51:40.998Z,6.06
2018-12-12T12:52:40.717Z,5.98
2018-12-12T12:53:41.245Z,6
2018-12-12T12:54:40.966Z,6.01
2018-12-12T12:55:41.166Z,6
2018-12-12T12:56:41.191Z,5.98
2018-12-12T12:57:40.882Z,5.95
2018-12-12T12:58:41.226Z,6.03
2018-12-12T12:59:40.835Z,5.95
2018-12-12T13:00:41.077Z,5.93
2018-12-12T13:01:40.791Z,6
2018-12-12T13:02:41.026Z,5.93
2018-12-12T13:03:41.015Z,5.96
2018-12-12T13:04:40.470Z,5.95
2018-12-12T13:05:40.966Z,5.95
2018-12-12T13:06:40.938Z,5.96
2018-12-12T13:07:40.927Z,6.07
2018-12-12T13:08:40.905Z,6.06
2018-12-12T13:09:41.355Z,6.06
2018-12-12T13:10:40.614Z,6.09
2018-12-12T13:11:40.592Z,6.06
2018-12-12T13:12:40.573Z,6.04
2018-12-12T13:13:40.552Z,6.09
2018-12-12T13:14:40.784Z,6.04
2018-12-12T13:15:40.512Z,6.04
2018-12-12T13:16:40.745Z,6
2018-12-12T13:17:40.474Z,6.06
2018-12-12T13:18:40.205Z,6.07
2018-12-12T13:19:40.436Z,6.1
2018-12-12T13:20:40.656Z,6.04
2018-12-12T13:21:41.548Z,6.07
2018-12-12T13:22:40.114Z,5.98
2018-12-12T13:23:40.100Z,6.13
2018-12-12T13:24:40.118Z,6.03